createdAt,value
2019-01-20T00:00:38.531Z,25.80
2019-01-20T00:02:40.266Z,24.70
2019-01-20T00:04:42.020Z,24.12
2019-01-20T00:06:43.727Z,23.45
2019-01-20T00:08:45.446Z,24.10
2019-01-20T00:10:47.174Z,24.25
2019-01-20T00:12:49.006Z,26.07
2019-01-20T00:14:50.776Z,24.72
2019-01-20T00:16:52.536Z,25.68
2019-01-20T00:18:54.263Z,25.37
2019-01-20T00:20:55.992Z,25.85
2019-01-20T00:22:57.807Z,26.00
2019-01-20T00:24:59.577Z,25.25
2019-01-20T00:27:01.384Z,25.57
2019-01-20T00:29:04.098Z,24.40
2019-01-20T00:31:05.843Z,26.15
2019-01-20T00:33:07.719Z,24.27
2019-01-20T00:35:09.618Z,25.68
2019-01-20T00:37:11.620Z,26.35
2019-01-20T00:39:13.315Z,25.20
2019-01-20T00:41:15.122Z,25.50
2019-01-20T00:43:16.870Z,24.52
2019-01-20T00:45:18.795Z,27.48
2019-01-20T00:47:20.511Z,27.20
2019-01-20T00:49:22.264Z,25.97
2019-01-20T00:51:23.982Z,25.57
2019-01-20T00:53:25.694Z,26.70
2019-01-20T00:55:27.694Z,24.57
2019-01-20T00:57:31.681Z,29.07
2019-01-20T00:59:33.402Z,26.77
2019-01-20T01:01:35.758Z,25.40
2019-01-20T01:03:37.902Z,24.72
2019-01-20T01:05:40.168Z,26.45
2019-01-20T01:07:42.099Z,27.22
2019-01-20T01:09:44.112Z,26.45
2019-01-20T01:11:46.684Z,26.35
2019-01-20T01:13:48.814Z,27.77
2019-01-20T01:15:50.887Z,26.52
2019-01-20T01:17:52.605Z,25.75
2019-01-20T01:19:55.411Z,25.72
2019-01-20T01:21:57.319Z,26.50
2019-01-20T01:23:59.026Z,24.52
2019-01-20T01:26:00.723Z,25.60
2019-01-20T01:28:03.030Z,26.90
2019-01-20T01:30:08.050Z,27.70
2019-01-20T01:32:09.958Z,27.48
2019-01-20T01:34:11.850Z,28.32
2019-01-20T01:36:13.559Z,30.85
2019-01-20T01:38:15.270Z,28.25
2019-01-20T01:40:17.874Z,29.90
2019-01-20T01:42:19.687Z,29.80
2019-01-20T01:44:21.435Z,27.00
2019-01-20T01:46:23.427Z,28.10
2019-01-20T01:48:25.138Z,26.55
2019-01-20T01:50:26.879Z,27.62
2019-01-20T01:52:28.587Z,27.00
2019-01-20T01:54:30.306Z,31.00
2019-01-20T01:56:32.040Z,25.55
2019-01-20T01:58:33.850Z,27.20
2019-01-20T02:00:35.666Z,27.85
2019-01-20T02:02:37.568Z,29.55
2019-01-20T02:04:39.274Z,28.60
2019-01-20T02:06:41.083Z,29.85
2019-01-20T02:08:43.447Z,28.80
2019-01-20T02:10:45.160Z,28.10
2019-01-20T02:12:48.194Z,30.65
2019-01-20T02:14:50.087Z,28.27
2019-01-20T02:16:52.035Z,28.85
2019-01-20T02:18:53.742Z,29.98
2019-01-20T02:20:55.487Z,29.27
2019-01-20T02:22:57.218Z,28.90
2019-01-20T02:24:59.244Z,27.48
2019-01-20T02:27:00.999Z,29.12
2019-01-20T02:29:03.722Z,29.77
2019-01-20T02:31:05.781Z,29.25
2019-01-20T02:33:07.607Z,31.25
2019-01-20T02:35:09.510Z,28.12
2019-01-20T02:37:11.328Z,27.37
2019-01-20T02:39:13.062Z,27.50
2019-01-20T02:41:14.781Z,29.57
2019-01-20T02:43:16.505Z,31.00
2019-01-20T02:45:18.322Z,27.85
2019-01-20T02:47:20.032Z,30.70
2019-01-20T02:49:21.870Z,28.45
2019-01-20T02:51:23.676Z,27.73
2019-01-20T02:53:25.387Z,28.00
2019-01-20T02:55:27.368Z,31.30
2019-01-20T02:57:29.199Z,28.67
2019-01-20T02:59:30.920Z,29.40
2019-01-20T03:01:32.624Z,29.40
2019-01-20T03:03:34.455Z,29.55
2019-01-20T03:05:36.620Z,29.57
2019-01-20T03:07:38.336Z,28.95
2019-01-20T03:09:40.154Z,29.05
2019-01-20T03:11:41.863Z,29.50
2019-01-20T03:13:43.577Z,31.48
2019-01-20T03:15:45.418Z,29.45
2019-01-20T03:17:47.224Z,28.67
2019-01-20T03:19:48.934Z,31.00
2019-01-20T03:21:50.826Z,30.77
2019-01-20T03:23:52.526Z,32.40
2019-01-20T03:25:54.264Z,30.68
2019-01-20T03:27:56.095Z,29.27
2019-01-20T03:29:57.811Z,30.40
2019-01-20T03:31:59.534Z,28.02
2019-01-20T03:34:01.761Z,29.67
2019-01-20T03:36:03.670Z,30.68
2019-01-20T03:38:05.473Z,30.70
2019-01-20T03:40:09.314Z,33.90
2019-01-20T03:42:12.106Z,30.70
2019-01-20T03:44:14.247Z,33.67
2019-01-20T03:46:16.114Z,29.82
2019-01-20T03:48:17.937Z,31.12
2019-01-20T03:50:19.762Z,31.07
2019-01-20T03:52:21.715Z,33.40
2019-01-20T03:54:23.521Z,30.30
2019-01-20T03:56:25.541Z,30.05
2019-01-20T03:58:27.363Z,30.17
2019-01-20T04:00:29.348Z,31.65
2019-01-20T04:02:31.433Z,31.62
2019-01-20T04:04:33.419Z,30.80
2019-01-20T04:06:35.142Z,29.00
2019-01-20T04:08:36.852Z,29.23
2019-01-20T04:10:38.704Z,31.17
2019-01-20T04:12:40.423Z,30.85
2019-01-20T04:14:42.230Z,29.92
2019-01-20T04:16:44.329Z,31.42
2019-01-20T04:18:46.042Z,28.35
2019-01-20T04:20:47.750Z,28.35
2019-01-20T04:22:49.609Z,26.90
2019-01-20T04:24:51.410Z,27.73
2019-01-20T04:26:53.386Z,30.75
2019-01-20T04:28:55.222Z,30.48
2019-01-20T04:30:57.043Z,27.85
2019-01-20T04:32:58.775Z,29.98
2019-01-20T04:35:00.626Z,27.93
2019-01-20T04:37:02.452Z,30.00
2019-01-20T04:39:05.935Z,28.67
2019-01-20T04:41:07.841Z,27.32
2019-01-20T04:43:09.811Z,28.15
2019-01-20T04:45:12.006Z,28.85
2019-01-20T04:47:14.207Z,26.85
2019-01-20T04:49:15.920Z,28.27
2019-01-20T04:51:17.622Z,28.52
2019-01-20T04:53:19.336Z,28.87
2019-01-20T04:55:21.135Z,28.05
2019-01-20T04:57:23.246Z,31.25
2019-01-20T04:59:25.131Z,28.40
2019-01-20T05:01:26.834Z,27.82
2019-01-20T05:03:28.562Z,28.42
2019-01-20T05:05:30.448Z,29.42
2019-01-20T05:07:32.250Z,27.67
2019-01-20T05:09:34.011Z,29.10
2019-01-20T05:11:35.813Z,29.00
2019-01-20T05:13:37.540Z,27.82
2019-01-20T05:15:39.250Z,26.75
2019-01-20T05:17:41.108Z,27.10
2019-01-20T05:19:42.802Z,27.80
2019-01-20T05:21:44.518Z,28.15
2019-01-20T05:23:46.357Z,27.40
2019-01-20T05:25:48.169Z,28.15
2019-01-20T05:27:49.900Z,30.43
2019-01-20T05:29:51.734Z,28.55
2019-01-20T05:31:53.451Z,29.18
2019-01-20T05:33:55.156Z,27.40
2019-01-20T05:35:56.908Z,28.17
2019-01-20T05:37:58.730Z,26.45
2019-01-20T05:40:00.450Z,28.85
2019-01-20T05:42:02.644Z,27.82
2019-01-20T05:44:04.361Z,28.83
2019-01-20T05:46:06.073Z,27.48
2019-01-20T05:48:07.905Z,26.57
2019-01-20T05:50:10.905Z,28.05
2019-01-20T05:52:12.682Z,27.80
2019-01-20T05:54:14.421Z,27.60
2019-01-20T05:56:16.241Z,27.65
2019-01-20T05:58:18.058Z,31.95
2019-01-20T06:00:21.990Z,26.42
2019-01-20T06:02:23.699Z,28.62
2019-01-20T06:04:25.550Z,26.17
2019-01-20T06:06:27.286Z,30.50
2019-01-20T06:08:28.986Z,26.27
2019-01-20T06:10:30.679Z,27.85
2019-01-20T06:12:32.510Z,28.47
2019-01-20T06:14:34.225Z,29.82
2019-01-20T06:16:36.025Z,26.33
2019-01-20T06:18:37.836Z,27.60
2019-01-20T06:20:39.956Z,28.17
2019-01-20T06:22:41.668Z,27.90
2019-01-20T06:24:43.386Z,27.60
2019-01-20T06:26:45.216Z,28.00
2019-01-20T06:28:46.974Z,29.00
2019-01-20T06:30:48.725Z,29.32
2019-01-20T06:32:50.606Z,27.60
2019-01-20T06:34:52.329Z,27.87
2019-01-20T06:36:54.030Z,28.00
2019-01-20T06:38:55.781Z,28.42
2019-01-20T06:40:57.510Z,27.70
2019-01-20T06:43:02.242Z,29.48
2019-01-20T06:45:04.472Z,27.90
2019-01-20T06:47:06.206Z,28.65
2019-01-20T06:49:07.919Z,26.95
2019-01-20T06:51:09.742Z,27.02
2019-01-20T06:53:11.739Z,28.23
2019-01-20T06:55:13.661Z,27.30
2019-01-20T06:57:15.610Z,27.65
2019-01-20T06:59:17.399Z,26.65
2019-01-20T07:01:19.107Z,28.90
2019-01-20T07:03:21.087Z,27.73
2019-01-20T07:05:23.180Z,29.70
2019-01-20T07:07:24.986Z,29.00
2019-01-20T07:09:26.699Z,27.55
2019-01-20T07:11:28.721Z,28.05
2019-01-20T07:13:30.433Z,28.05
2019-01-20T07:15:32.312Z,25.82
2019-01-20T07:17:34.055Z,28.02
2019-01-20T07:19:35.898Z,25.08
2019-01-20T07:21:37.627Z,26.95
2019-01-20T07:23:39.342Z,26.42
2019-01-20T07:25:41.087Z,26.75
2019-01-20T07:31:04.308Z,24.98
2019-01-20T07:33:06.620Z,26.60
2019-01-20T07:35:08.800Z,26.25
2019-01-20T07:37:10.673Z,25.35
2019-01-20T07:39:12.541Z,26.17
2019-01-20T07:41:14.567Z,25.85
2019-01-20T07:43:16.923Z,24.60
2019-01-20T07:46:17.218Z,25.82
2019-01-20T07:49:00.308Z,24.37
2019-01-20T07:51:03.199Z,30.80
2019-01-20T07:53:04.967Z,26.37
2019-01-20T07:55:07.718Z,25.10
2019-01-20T07:57:10.748Z,28.62
2019-01-20T07:59:13.067Z,26.40
2019-01-20T08:01:14.815Z,27.40
2019-01-20T08:03:40.810Z,26.95
2019-01-20T08:06:32.311Z,24.40
2019-01-20T08:09:02.445Z,26.07
2019-01-20T08:11:04.535Z,24.85
2019-01-20T08:13:06.547Z,26.42
2019-01-20T08:15:08.950Z,26.30
2019-01-20T08:17:11.370Z,26.55
2019-01-20T08:19:16.079Z,23.25
2019-01-20T08:21:17.911Z,26.05
2019-01-20T08:23:19.664Z,24.82
2019-01-20T08:25:21.663Z,25.57
2019-01-20T08:27:23.547Z,24.25
2019-01-20T08:29:31.276Z,24.18
2019-01-20T08:32:20.423Z,26.85
2019-01-20T08:34:22.598Z,25.05
2019-01-20T08:36:24.593Z,25.52
2019-01-20T08:38:26.374Z,24.15
2019-01-20T08:40:29.711Z,25.77
2019-01-20T08:42:31.558Z,24.75
2019-01-20T08:44:37.369Z,23.98
2019-01-20T08:47:16.606Z,25.75
2019-01-20T08:49:18.354Z,25.75
2019-01-20T08:51:20.286Z,25.15
2019-01-20T08:53:22.274Z,25.43
2019-01-20T08:55:24.104Z,24.90
2019-01-20T08:57:27.210Z,24.87
2019-01-20T08:59:28.975Z,27.95
2019-01-20T09:01:30.814Z,26.42
2019-01-20T09:03:33.539Z,39.50
2019-01-20T09:05:35.399Z,29.72
2019-01-20T09:07:38.440Z,34.70
2019-01-20T09:09:40.363Z,29.27
2019-01-20T09:11:42.639Z,33.35
2019-01-20T09:13:44.376Z,26.35
2019-01-20T09:15:46.362Z,25.72
2019-01-20T09:17:48.338Z,24.67
2019-01-20T09:19:50.090Z,26.90
2019-01-20T09:21:55.358Z,23.40
2019-01-20T09:23:57.190Z,25.12
2019-01-20T09:25:59.272Z,25.72
2019-01-20T09:28:01.304Z,25.60
2019-01-20T09:30:05.510Z,25.02
2019-01-20T09:32:07.354Z,25.15
2019-01-20T09:34:12.295Z,25.75
2019-01-20T09:36:15.192Z,25.55
2019-01-20T09:38:16.999Z,26.37
2019-01-20T09:40:20.907Z,26.15
2019-01-20T09:42:22.754Z,26.93
2019-01-20T09:44:24.464Z,26.77
2019-01-20T09:46:26.177Z,24.92
2019-01-20T09:48:28.153Z,25.52
2019-01-20T09:50:29.870Z,24.70
2019-01-20T09:52:31.686Z,24.43
2019-01-20T09:54:33.418Z,23.92
2019-01-20T09:56:35.230Z,25.32
2019-01-20T09:58:36.971Z,26.95
2019-01-20T10:00:38.807Z,25.77
2019-01-20T10:02:41.703Z,24.55
2019-01-20T10:04:43.887Z,26.57
2019-01-20T10:06:45.744Z,28.55
2019-01-20T10:08:47.626Z,26.45
2019-01-20T10:10:49.380Z,25.90
2019-01-20T10:12:51.267Z,25.55
2019-01-20T10:14:53.052Z,26.20
2019-01-20T10:16:54.856Z,25.92
2019-01-20T10:18:56.603Z,26.87
2019-01-20T10:20:58.415Z,26.77
2019-01-20T10:23:00.314Z,29.02
2019-01-20T10:25:02.642Z,30.68
2019-01-20T10:27:04.455Z,27.70
2019-01-20T10:29:06.285Z,28.55
2019-01-20T10:31:08.076Z,23.45
2019-01-20T10:33:09.852Z,26.07
2019-01-20T10:35:12.198Z,25.75
2019-01-20T10:37:14.053Z,24.23
2019-01-20T10:39:15.756Z,23.47
2019-01-20T10:41:17.562Z,24.07
2019-01-20T10:43:19.340Z,25.80
2019-01-20T10:45:21.059Z,24.45
2019-01-20T10:47:22.766Z,24.50
2019-01-20T10:49:24.619Z,22.73
2019-01-20T10:51:26.833Z,25.75
2019-01-20T10:53:28.712Z,24.43
2019-01-20T10:55:30.796Z,24.18
2019-01-20T10:57:32.603Z,26.02
2019-01-20T10:59:34.566Z,24.00
2019-01-20T11:01:36.405Z,24.20
2019-01-20T11:03:38.204Z,24.85
2019-01-20T11:05:40.070Z,24.52
2019-01-20T11:07:41.807Z,23.18
2019-01-20T11:09:44.290Z,22.03
2019-01-20T11:11:46.269Z,24.87
2019-01-20T11:13:48.259Z,25.20
2019-01-20T11:15:50.043Z,25.50
2019-01-20T11:17:52.889Z,27.30
2019-01-20T11:19:54.789Z,25.87
2019-01-20T11:21:56.682Z,25.80
2019-01-20T11:23:58.601Z,24.43
2019-01-20T11:26:00.527Z,24.27
2019-01-20T11:28:02.453Z,24.57
2019-01-20T11:30:05.836Z,26.00
2019-01-20T11:32:07.591Z,24.60
2019-01-20T11:34:09.467Z,26.10
2019-01-20T11:36:11.312Z,24.77
2019-01-20T11:38:13.074Z,25.67
2019-01-20T11:40:15.097Z,25.03
2019-01-20T11:42:17.986Z,24.20
2019-01-20T11:44:19.707Z,25.80
2019-01-20T11:46:21.432Z,24.87
2019-01-20T11:48:26.068Z,23.30
2019-01-20T11:50:27.880Z,23.17
2019-01-20T11:52:29.744Z,22.90
2019-01-20T11:54:31.471Z,22.90
2019-01-20T11:56:33.298Z,24.47
2019-01-20T11:58:35.084Z,24.00
2019-01-20T12:00:37.022Z,24.37
2019-01-20T12:02:38.767Z,25.07
2019-01-20T12:04:40.562Z,24.87
2019-01-20T12:06:49.289Z,22.93
2019-01-20T12:08:51.139Z,25.00
2019-01-20T12:10:52.938Z,24.73
2019-01-20T12:13:05.901Z,27.97
2019-01-20T12:15:09.446Z,33.23
2019-01-20T12:17:11.288Z,28.00
2019-01-20T12:19:13.336Z,22.50
2019-01-20T12:21:15.172Z,28.90
2019-01-20T12:23:17.212Z,23.80
2019-01-20T12:25:19.183Z,23.17
2019-01-20T12:27:20.923Z,19.87
2019-01-20T12:29:22.751Z,20.10
2019-01-20T12:31:24.500Z,18.60
2019-01-20T12:33:26.295Z,20.20
2019-01-20T12:35:28.243Z,18.57
2019-01-20T12:37:30.219Z,17.83
2019-01-20T12:39:32.079Z,19.37
2019-01-20T12:41:34.103Z,19.20
2019-01-20T12:43:35.831Z,16.70
2019-01-20T12:45:37.642Z,14.90
2019-01-20T12:47:39.402Z,15.07
2019-01-20T12:49:41.813Z,12.57
2019-01-20T12:51:43.537Z,16.33
2019-01-20T12:53:45.497Z,14.27
2019-01-20T12:55:47.234Z,15.23
2019-01-20T12:57:48.955Z,14.40
2019-01-20T12:59:50.680Z,14.60
2019-01-20T13:01:52.466Z,15.10
2019-01-20T13:03:54.253Z,16.00
2019-01-20T13:05:56.146Z,15.47
2019-01-20T13:07:57.871Z,16.40
2019-01-20T13:09:59.628Z,15.60
2019-01-20T13:12:01.580Z,15.13
2019-01-20T13:14:03.626Z,15.63
2019-01-20T13:16:08.407Z,15.67
2019-01-20T13:18:10.138Z,14.33
2019-01-20T13:20:14.758Z,14.83
2019-01-20T13:22:16.495Z,17.43
2019-01-20T13:24:18.457Z,15.20
2019-01-20T13:26:20.623Z,14.50
2019-01-20T13:28:22.510Z,14.10
2019-01-20T13:30:25.761Z,13.40
2019-01-20T13:32:27.612Z,14.60
2019-01-20T13:34:29.326Z,14.17
2019-01-20T13:36:31.148Z,14.90
2019-01-20T13:38:32.940Z,14.43
2019-01-20T13:40:46.670Z,14.70
2019-01-20T13:42:48.494Z,14.57
2019-01-20T13:44:50.382Z,14.07
2019-01-20T13:46:52.311Z,14.97
2019-01-20T13:48:54.152Z,14.33
2019-01-20T13:50:55.879Z,14.20
2019-01-20T13:52:57.587Z,15.20
2019-01-20T13:54:59.314Z,15.20
2019-01-20T13:57:01.315Z,15.00
2019-01-20T13:59:03.343Z,15.73
2019-01-20T14:01:05.262Z,15.53
2019-01-20T14:03:06.986Z,15.20
2019-01-20T14:05:08.867Z,15.40
2019-01-20T14:07:11.021Z,15.83
2019-01-20T14:09:12.971Z,15.83
2019-01-20T14:11:14.805Z,15.67
2019-01-20T14:13:16.688Z,16.23
2019-01-20T14:15:18.630Z,15.20
2019-01-20T14:17:21.465Z,16.03
2019-01-20T14:19:23.191Z,14.17
2019-01-20T14:21:25.179Z,15.07
2019-01-20T14:23:27.002Z,14.53
2019-01-20T14:25:28.826Z,17.53
2019-01-20T14:27:31.390Z,20.23
2019-01-20T14:29:33.224Z,16.90
2019-01-20T14:31:34.946Z,19.13
2019-01-20T14:33:36.842Z,17.63
2019-01-20T14:35:38.592Z,17.10
2019-01-20T14:37:40.690Z,15.33
2019-01-20T14:39:42.425Z,17.23
2019-01-20T14:41:44.147Z,16.13
2019-01-20T14:43:46.021Z,19.70
2019-01-20T14:45:47.998Z,19.03
2019-01-20T14:47:49.743Z,19.23
2019-01-20T14:49:51.539Z,21.80
2019-01-20T14:51:53.277Z,24.30
2019-01-20T14:53:55.354Z,24.97
2019-01-20T14:55:57.396Z,24.27
2019-01-20T14:57:59.322Z,25.73
2019-01-20T15:00:01.162Z,26.07
2019-01-20T15:02:09.451Z,26.60
2019-01-20T15:04:12.182Z,28.67
2019-01-20T15:06:14.290Z,28.10
2019-01-20T15:08:16.477Z,27.03
2019-01-20T15:10:18.427Z,26.43
2019-01-20T15:12:20.398Z,30.50
2019-01-20T15:14:22.313Z,28.67
2019-01-20T15:16:24.167Z,28.57
2019-01-20T15:18:25.935Z,27.70
2019-01-20T15:20:27.734Z,28.53
2019-01-20T15:22:29.634Z,29.40
2019-01-20T15:24:31.575Z,27.00
2019-01-20T15:26:33.297Z,26.37
2019-01-20T15:28:35.996Z,25.45
2019-01-20T15:30:37.920Z,25.57
2019-01-20T15:32:39.626Z,24.32
2019-01-20T15:34:41.634Z,23.98
2019-01-20T15:36:43.339Z,24.95
2019-01-20T15:38:45.047Z,22.73
2019-01-20T15:40:47.131Z,26.02
2019-01-20T15:42:49.083Z,25.48
2019-01-20T15:44:50.790Z,21.80
2019-01-20T15:46:52.762Z,22.77
2019-01-20T15:48:54.474Z,22.52
2019-01-20T15:50:56.191Z,23.18
2019-01-20T15:52:58.218Z,22.82
2019-01-20T15:54:59.926Z,22.93
2019-01-20T15:57:01.658Z,25.57
2019-01-20T15:59:03.518Z,23.07
2019-01-20T16:01:05.274Z,22.45
2019-01-20T16:03:07.484Z,23.10
2019-01-20T16:05:09.506Z,22.75
2019-01-20T16:07:11.236Z,21.48
2019-01-20T16:09:12.961Z,23.18
2019-01-20T16:11:14.832Z,20.90
2019-01-20T16:13:16.550Z,21.35
2019-01-20T16:15:29.929Z,21.75
2019-01-20T16:17:31.794Z,22.35
2019-01-20T16:19:33.528Z,23.35
2019-01-20T16:21:35.623Z,25.65
2019-01-20T16:23:37.791Z,23.73
2019-01-20T16:25:39.531Z,23.27
2019-01-20T16:27:41.533Z,22.58
2019-01-20T16:29:43.543Z,22.02
2019-01-20T16:31:45.484Z,22.05
2019-01-20T16:33:47.385Z,20.55
2019-01-20T16:35:49.251Z,22.65
2019-01-20T16:37:51.583Z,21.12
2019-01-20T16:39:53.834Z,22.20
2019-01-20T16:41:56.559Z,23.12
2019-01-20T16:43:58.735Z,20.95
2019-01-20T16:46:00.646Z,23.70
2019-01-20T16:48:03.374Z,23.90
2019-01-20T16:50:07.515Z,23.25
2019-01-20T16:52:10.763Z,22.62
2019-01-20T16:54:12.835Z,22.50
2019-01-20T16:59:38.283Z,27.87
2019-01-20T17:01:48.059Z,21.90
2019-01-20T17:03:48.080Z,20.15
2019-01-20T17:05:49.802Z,24.18
2019-01-20T17:07:51.878Z,22.67
2019-01-20T17:09:53.902Z,23.35
2019-01-20T17:11:55.990Z,24.23
2019-01-20T17:13:57.731Z,24.65
2019-01-20T17:15:59.474Z,23.35
2019-01-20T17:18:01.423Z,23.32
2019-01-20T17:20:04.879Z,26.30
2019-01-20T17:22:06.714Z,28.07
2019-01-20T17:24:08.452Z,31.52
2019-01-20T17:26:10.585Z,28.98
2019-01-20T17:28:12.582Z,31.80
2019-01-20T17:30:17.015Z,29.95
2019-01-20T17:32:43.935Z,27.05
2019-01-20T17:34:45.830Z,26.10
2019-01-20T17:36:47.809Z,26.35
2019-01-20T17:38:49.844Z,26.73
2019-01-20T17:40:51.651Z,25.57
2019-01-20T17:42:53.570Z,25.37
2019-01-20T17:48:04.206Z,24.75
2019-01-20T17:50:28.394Z,30.35
2019-01-20T17:52:30.587Z,28.10
2019-01-20T17:54:32.496Z,32.80
2019-01-20T17:56:34.455Z,28.80
2019-01-20T17:58:36.475Z,34.65
2019-01-20T18:00:41.250Z,35.00
2019-01-20T18:02:43.126Z,33.67
2019-01-20T18:04:45.148Z,28.92
2019-01-20T18:06:47.124Z,25.27
2019-01-20T18:08:49.075Z,29.40
2019-01-20T18:10:51.054Z,25.70
2019-01-20T18:12:53.450Z,31.20
2019-01-20T18:14:55.275Z,30.50
2019-01-20T18:16:57.110Z,27.10
2019-01-20T18:18:58.814Z,29.90
2019-01-20T18:21:00.555Z,31.87
2019-01-20T18:23:02.679Z,24.85
2019-01-20T18:25:06.766Z,28.95
2019-01-20T18:27:08.654Z,30.55
2019-01-20T18:29:10.766Z,32.55
2019-01-20T18:31:12.490Z,25.05
2019-01-20T18:33:14.306Z,25.12
2019-01-20T18:35:17.039Z,28.65
2019-01-20T18:37:19.067Z,27.32
2019-01-20T18:39:20.873Z,38.83
2019-01-20T18:41:22.771Z,37.03
2019-01-20T18:43:24.863Z,35.05
2019-01-20T18:45:28.773Z,31.33
2019-01-20T18:47:30.715Z,26.40
2019-01-20T18:49:32.564Z,26.55
2019-01-20T18:51:34.417Z,34.05
2019-01-20T18:53:36.254Z,31.37
2019-01-20T18:55:38.511Z,33.80
2019-01-20T18:57:40.630Z,27.77
2019-01-20T18:59:42.363Z,28.05
2019-01-20T19:01:44.292Z,36.98
2019-01-20T19:03:46.035Z,37.00
2019-01-20T19:05:49.128Z,35.35
2019-01-20T19:07:55.339Z,27.22
2019-01-20T19:10:14.527Z,33.00
2019-01-20T19:12:16.353Z,27.45
2019-01-20T19:14:18.922Z,25.92
2019-01-20T19:16:20.691Z,33.78
2019-01-20T19:18:22.628Z,33.92
2019-01-20T19:20:24.612Z,22.60
2019-01-20T19:22:26.532Z,26.02
2019-01-20T19:24:28.287Z,25.68
2019-01-20T19:26:30.135Z,34.48
2019-01-20T19:28:32.135Z,31.07
2019-01-20T19:30:34.167Z,30.10
2019-01-20T19:32:35.950Z,28.32
2019-01-20T19:34:37.776Z,31.55
2019-01-20T19:36:39.531Z,31.82
2019-01-20T19:38:41.344Z,33.42
2019-01-20T19:40:43.254Z,33.88
2019-01-20T19:42:45.094Z,38.28
2019-01-20T19:44:46.818Z,35.50
2019-01-20T19:46:48.566Z,35.08
2019-01-20T19:48:51.147Z,30.55
2019-01-20T19:50:53.172Z,28.38
2019-01-20T19:52:55.044Z,33.00
2019-01-20T19:54:56.815Z,31.52
2019-01-20T19:56:58.571Z,28.90
2019-01-20T19:59:00.607Z,28.70
2019-01-20T20:01:02.694Z,29.20
2019-01-20T20:03:04.723Z,32.75
2019-01-20T20:05:09.984Z,27.82
2019-01-20T20:07:11.766Z,31.37
2019-01-20T20:09:13.674Z,30.05
2019-01-20T20:11:15.901Z,30.70
2019-01-20T20:13:25.162Z,30.43
2019-01-20T20:15:27.256Z,33.18
2019-01-20T20:17:30.135Z,28.12
2019-01-20T20:19:32.013Z,29.23
2019-01-20T20:21:34.190Z,27.70
2019-01-20T20:23:36.107Z,32.53
2019-01-20T20:25:38.201Z,30.00
2019-01-20T20:27:40.264Z,27.32
2019-01-20T20:29:42.719Z,27.25
2019-01-20T20:31:48.005Z,26.75
2019-01-20T20:33:49.890Z,25.57
2019-01-20T20:35:52.154Z,29.50
2019-01-20T20:37:54.076Z,27.87
2019-01-20T20:39:55.974Z,32.00
2019-01-20T20:41:57.867Z,28.83
2019-01-20T20:44:02.580Z,29.23
2019-01-20T20:46:04.563Z,27.22
2019-01-20T20:48:06.424Z,30.80
2019-01-20T20:50:09.599Z,37.53
2019-01-20T20:52:11.501Z,34.80
2019-01-20T20:54:13.580Z,38.35
2019-01-20T20:56:15.451Z,28.05
2019-01-20T20:58:17.222Z,30.90
2019-01-20T21:00:24.985Z,33.60
2019-01-20T21:02:26.851Z,29.92
2019-01-20T21:04:28.824Z,31.20
2019-01-20T21:06:31.093Z,26.80
2019-01-20T21:08:32.916Z,28.62
2019-01-20T21:10:34.887Z,25.37
2019-01-20T21:12:37.254Z,30.17
2019-01-20T21:14:39.325Z,27.17
2019-01-20T21:16:41.218Z,29.10
2019-01-20T21:18:43.150Z,28.02
2019-01-20T21:20:45.165Z,29.32
2019-01-20T21:22:47.063Z,28.07
2019-01-20T21:24:49.062Z,26.45
2019-01-20T21:26:51.117Z,27.05
2019-01-20T21:28:53.050Z,25.20
2019-01-20T21:30:55.063Z,23.87
2019-01-20T21:32:57.256Z,26.48
2019-01-20T21:34:59.303Z,24.07
2019-01-20T21:37:01.499Z,25.90
2019-01-20T21:39:06.463Z,26.20
2019-01-20T21:41:08.457Z,27.22
2019-01-20T21:43:10.548Z,25.43
2019-01-20T21:45:12.788Z,25.57
2019-01-20T21:47:14.740Z,28.17
2019-01-20T21:49:16.638Z,28.02
2019-01-20T21:51:18.603Z,28.32
2019-01-20T21:53:20.497Z,33.18
2019-01-20T21:55:22.919Z,26.30
2019-01-20T21:57:24.806Z,25.95
2019-01-20T21:59:26.817Z,27.20
2019-01-20T22:01:28.657Z,28.55
2019-01-20T22:03:30.683Z,30.30
2019-01-20T22:05:33.144Z,29.48
2019-01-20T22:07:35.293Z,33.70
2019-01-20T22:09:37.491Z,23.22
2019-01-20T22:11:39.290Z,24.98
2019-01-20T22:13:41.502Z,37.67
2019-01-20T22:15:44.801Z,33.53
2019-01-20T22:17:47.247Z,31.48
2019-01-20T22:19:49.455Z,31.27
2019-01-20T22:21:52.449Z,32.80
2019-01-20T22:23:54.513Z,32.10
2019-01-20T22:25:56.967Z,33.63
2019-01-20T22:27:58.916Z,26.37
2019-01-20T22:30:00.761Z,32.90
2019-01-20T22:32:02.781Z,36.85
2019-01-20T22:34:04.663Z,34.15
2019-01-20T22:36:06.435Z,33.92
2019-01-20T22:38:08.345Z,34.48
2019-01-20T22:40:11.227Z,33.63
2019-01-20T22:42:13.404Z,35.10
2019-01-20T22:44:15.847Z,32.55
2019-01-20T22:46:17.683Z,33.58
2019-01-20T22:48:19.743Z,29.20
2019-01-20T22:50:21.967Z,36.35
2019-01-20T22:52:23.763Z,32.08
2019-01-20T22:54:25.495Z,28.60
2019-01-20T22:56:27.220Z,28.20
2019-01-20T22:58:28.923Z,33.65
2019-01-20T23:00:46.303Z,25.82
2019-01-20T23:02:48.254Z,31.48
2019-01-20T23:04:49.970Z,25.82
2019-01-20T23:06:51.700Z,36.48
2019-01-20T23:08:53.423Z,27.10
2019-01-20T23:10:55.118Z,26.20
2019-01-20T23:12:56.822Z,30.40
2019-01-20T23:14:58.561Z,28.42
2019-01-20T23:17:07.506Z,26.97
2019-01-20T23:19:04.058Z,34.33
2019-01-20T23:21:05.862Z,30.55
2019-01-20T23:23:07.574Z,35.40
2019-01-20T23:25:09.382Z,27.22
2019-01-20T23:27:11.101Z,30.92
2019-01-20T23:29:13.068Z,31.85
2019-01-20T23:31:14.772Z,33.95
2019-01-20T23:33:16.514Z,28.85
2019-01-20T23:35:18.474Z,28.25
2019-01-20T23:37:20.423Z,28.73
2019-01-20T23:39:22.135Z,33.10
2019-01-20T23:41:23.878Z,28.10
2019-01-20T23:43:25.570Z,28.10
2019-01-20T23:45:27.374Z,36.23
2019-01-20T23:47:29.091Z,27.25
2019-01-20T23:49:30.814Z,36.13
2019-01-20T23:51:32.542Z,29.90
2019-01-20T23:53:34.395Z,29.72
2019-01-20T23:55:36.258Z,29.15
2019-01-20T23:57:38.058Z,29.48
2019-01-20T23:59:39.775Z,29.07
